Time;durP1;ratioP1;P1;durP2;ratioP2;P2;SDS_P1;SDS_P2;PMS_P1;PMS_P2;Temp;Humidity;BMP_temperature;BMP_pressure;BME280_temperature;BME280_humidity;BME280_pressure;Samples;Min_cycle;Max_cycle;Signal;HPM_P1;HPM_P2
2021/12/01 00:01:02;;;;;;;2.45;2.15;;;;;;;9.18;100.00;100122.53;5345704;27;20102;-71
2021/12/01 00:03:34;;;;;;;4.07;1.80;;;;;;;9.20;100.00;100106.66;5345418;27;20031;-72
2021/12/01 00:06:05;;;;;;;2.45;2.00;;;;;;;9.11;100.00;100094.69;5345574;27;20466;-71
2021/12/01 00:08:37;;;;;;;3.17;1.77;;;;;;;9.15;100.00;100101.56;5345752;27;20068;-71
2021/12/01 00:11:08;;;;;;;2.00;1.30;;;;;;;9.15;100.00;100091.03;5345219;27;20027;-71
2021/12/01 00:13:39;;;;;;;2.88;2.03;;;;;;;9.22;100.00;100076.69;5345464;27;20488;-71
2021/12/01 00:16:11;;;;;;;3.28;1.33;;;;;;;9.14;100.00;100073.47;5345883;27;20031;-70
2021/12/01 00:18:42;;;;;;;2.30;1.60;;;;;;;9.23;100.00;100067.00;5344938;27;20450;-70
2021/12/01 00:21:13;;;;;;;2.08;1.08;;;;;;;9.24;100.00;100063.47;5346105;27;20458;-71
2021/12/01 00:23:45;;;;;;;1.90;1.60;;;;;;;9.14;100.00;100052.41;5344501;27;20069;-71
2021/12/01 00:26:16;;;;;;;2.70;1.40;;;;;;;9.23;100.00;100044.13;5345904;27;20031;-71
2021/12/01 00:28:47;;;;;;;1.98;0.90;;;;;;;9.32;100.00;100031.53;5345079;27;20019;-70
2021/12/01 00:31:19;;;;;;;1.52;0.82;;;;;;;9.36;100.00;100014.69;5344794;27;20467;-70
2021/12/01 00:33:51;;;;;;;2.55;1.40;;;;;;;9.08;100.00;100011.34;5345165;27;20465;-70
2021/12/01 00:36:23;;;;;;;1.67;1.20;;;;;;;9.21;100.00;99989.75;5345755;27;20439;-70
2021/12/01 00:38:54;;;;;;;2.28;1.23;;;;;;;9.11;100.00;99994.56;5344280;27;20027;-70
2021/12/01 00:41:25;;;;;;;2.08;1.30;;;;;;;9.07;100.00;99996.44;5345459;27;20027;-70
2021/12/01 00:43:57;;;;;;;1.60;1.27;;;;;;;9.13;100.00;99991.84;5344818;27;20553;-71
2021/12/01 00:46:42;;;;;;;3.05;1.67;;;;;;;9.05;100.00;99985.09;5344512;27;20126;-70
2021/12/01 00:49:14;;;;;;;1.83;1.13;;;;;;;9.11;100.00;99970.84;5345630;27;20031;-70
2021/12/01 00:51:45;;;;;;;2.33;1.25;;;;;;;9.14;100.00;99967.25;5344828;27;20031;-71
2021/12/01 00:54:17;;;;;;;3.40;1.08;;;;;;;9.19;100.00;99966.09;5344985;27;20041;-71
2021/12/01 00:56:51;;;;;;;3.67;1.63;;;;;;;9.12;100.00;99963.78;5345148;27;20457;-70
2021/12/01 00:59:22;;;;;;;3.03;1.55;;;;;;;9.03;100.00;99965.00;5344532;28;20034;-70
2021/12/01 01:01:54;;;;;;;3.72;1.55;;;;;;;9.06;100.00;99955.22;5344821;28;20463;-70
2021/12/01 01:04:25;;;;;;;2.45;1.52;;;;;;;9.11;100.00;99952.41;5345321;27;20031;-71
2021/12/01 01:06:56;;;;;;;2.55;1.63;;;;;;;9.08;100.00;99937.56;5344433;28;20092;-70
2021/12/01 01:09:31;;;;;;;2.38;1.70;;;;;;;9.05;100.00;99947.38;5345290;28;20342;-70
2021/12/01 01:17:45;;;;;;;3.03;2.15;;;;;;;9.02;100.00;99929.91;5344674;28;20024;-70
2021/12/01 01:20:16;;;;;;;2.40;2.20;;;;;;;9.01;100.00;99925.56;5347131;27;20027;-70
2021/12/01 01:22:48;;;;;;;3.55;3.00;;;;;;;9.00;100.00;99913.28;5348909;27;20034;-69
2021/12/01 01:25:19;;;;;;;4.47;3.10;;;;;;;8.93;100.00;99909.19;5349428;27;20034;-70
2021/12/01 01:27:50;;;;;;;3.30;3.00;;;;;;;8.96;100.00;99903.81;5348305;27;20027;-70
2021/12/01 01:30:22;;;;;;;4.32;3.80;;;;;;;8.83;100.00;99898.19;5349489;27;20037;-70
2021/12/01 01:32:53;;;;;;;5.15;3.08;;;;;;;9.04;100.00;99901.72;5348725;27;20114;-70
2021/12/01 01:35:25;;;;;;;4.38;3.97;;;;;;;8.97;100.00;99891.50;5348442;27;20469;-70
2021/12/01 01:37:56;;;;;;;5.38;3.67;;;;;;;8.86;100.00;99894.56;5348723;27;20508;-70
2021/12/01 01:40:28;;;;;;;3.63;3.33;;;;;;;8.86;100.00;99884.03;5349525;27;20037;-70
2021/12/01 01:42:59;;;;;;;3.95;2.67;;;;;;;8.89;100.00;99891.81;5347892;27;20088;-69
2021/12/01 01:45:30;;;;;;;5.45;3.35;;;;;;;8.89;100.00;99889.19;5349117;27;20053;-70
2021/12/01 01:48:08;;;;;;;6.10;3.67;;;;;;;8.79;100.00;99887.81;5348171;27;20174;-70
2021/12/01 01:50:42;;;;;;;3.83;3.53;;;;;;;8.79;100.00;99872.88;5348515;27;20048;-71
2021/12/01 01:53:22;;;;;;;2.92;2.63;;;;;;;8.82;100.00;99851.69;5349242;27;20054;-71
2021/12/01 01:55:56;;;;;;;4.88;3.08;;;;;;;8.71;100.00;99869.69;5347696;27;20468;-71
2021/12/01 01:58:28;;;;;;;3.28;1.75;;;;;;;8.86;100.00;99860.34;5349008;27;20388;-71
2021/12/01 02:01:06;;;;;;;3.08;2.47;;;;;;;8.74;100.00;99853.75;5348185;27;20474;-71
2021/12/01 02:03:44;;;;;;;3.45;2.28;;;;;;;8.79;100.00;99845.69;5347355;27;20035;-71
2021/12/01 02:06:22;;;;;;;3.20;2.90;;;;;;;8.70;100.00;99849.56;5348762;27;20043;-71
2021/12/01 02:08:57;;;;;;;2.97;2.30;;;;;;;8.70;100.00;99831.13;5348197;27;20023;-70
2021/12/01 02:11:29;;;;;;;2.85;2.20;;;;;;;8.70;100.00;99829.34;5347647;27;20026;-71
2021/12/01 02:14:01;;;;;;;2.13;1.75;;;;;;;8.70;100.00;99810.91;5348144;27;20035;-70
2021/12/01 02:16:33;;;;;;;2.45;1.85;;;;;;;8.72;100.00;99808.22;5347843;27;20031;-71
2021/12/01 02:19:05;;;;;;;3.40;1.88;;;;;;;8.62;100.00;99801.59;5347969;27;20440;-71
2021/12/01 02:21:37;;;;;;;2.83;1.55;;;;;;;8.72;100.00;99789.78;5348098;27;20066;-71
2021/12/01 02:24:11;;;;;;;2.00;0.95;;;;;;;8.67;100.00;99803.13;5347401;27;20031;-71
2021/12/01 02:26:46;;;;;;;1.60;1.15;;;;;;;8.56;100.00;99784.28;5347986;27;20459;-71
2021/12/01 02:29:22;;;;;;;2.40;0.90;;;;;;;8.57;100.00;99781.56;5348280;27;20459;-71
2021/12/01 02:31:54;;;;;;;1.67;0.85;;;;;;;8.60;100.00;99771.84;5345444;27;20046;-71
2021/12/01 02:34:26;;;;;;;1.83;0.75;;;;;;;8.60;100.00;99780.59;5348056;27;20094;-71
2021/12/01 02:36:58;;;;;;;1.17;0.63;;;;;;;8.50;100.00;99772.22;5347741;27;20027;-71
2021/12/01 02:39:29;;;;;;;1.05;0.60;;;;;;;8.61;100.00;99763.91;5347298;27;20023;-71
2021/12/01 02:42:06;;;;;;;1.65;0.73;;;;;;;8.52;100.00;99753.72;5347436;27;20038;-71
2021/12/01 02:44:37;;;;;;;1.20;0.65;;;;;;;8.57;100.00;99728.94;5346245;27;20042;-69
2021/12/01 02:47:09;;;;;;;1.65;0.60;;;;;;;8.51;100.00;99726.56;5347609;27;20051;-69
2021/12/01 02:49:40;;;;;;;1.00;0.70;;;;;;;8.44;100.00;99722.44;5347126;27;20023;-69
2021/12/01 02:52:12;;;;;;;2.13;0.82;;;;;;;8.38;100.00;99720.88;5346913;27;20034;-72
2021/12/01 02:54:43;;;;;;;1.55;0.80;;;;;;;8.33;100.00;99717.59;5347197;27;20019;-70
2021/12/01 02:57:14;;;;;;;3.17;1.02;;;;;;;8.36;100.00;99706.94;5347359;27;20114;-70
2021/12/01 02:59:46;;;;;;;1.88;1.20;;;;;;;8.32;100.00;99712.41;5346298;27;20027;-71
2021/12/01 03:02:17;;;;;;;1.58;0.93;;;;;;;8.32;100.00;99686.09;5347642;27;20080;-69
2021/12/01 03:04:49;;;;;;;3.83;1.05;;;;;;;8.31;100.00;99703.63;5346620;27;20462;-69
2021/12/01 03:07:20;;;;;;;2.20;1.42;;;;;;;8.26;100.00;99692.47;5346486;27;20031;-69
2021/12/01 03:09:52;;;;;;;2.45;1.30;;;;;;;8.31;100.00;99676.47;5346423;27;20485;-69
2021/12/01 03:12:28;;;;;;;3.17;1.38;;;;;;;8.33;100.00;99670.25;5347306;27;20027;-69
2021/12/01 03:14:59;;;;;;;2.88;1.60;;;;;;;8.25;100.00;99674.09;5346508;27;20083;-69
2021/12/01 03:17:31;;;;;;;3.67;1.02;;;;;;;8.32;100.00;99668.53;5347173;27;20318;-69
2021/12/01 03:20:08;;;;;;;3.17;1.70;;;;;;;8.26;100.00;99666.16;5345660;27;20175;-69
2021/12/01 03:22:41;;;;;;;3.80;1.42;;;;;;;8.22;100.00;99660.13;5346243;27;20027;-69
2021/12/01 03:25:13;;;;;;;4.93;1.70;;;;;;;8.14;100.00;99656.09;5346929;27;20046;-70
2021/12/01 03:27:45;;;;;;;2.10;1.38;;;;;;;8.32;100.00;99641.38;5345660;27;20034;-70
2021/12/01 03:30:16;;;;;;;3.17;0.90;;;;;;;8.38;100.00;99615.63;5346860;27;20355;-69
2021/12/01 03:32:49;;;;;;;2.15;1.50;;;;;;;8.29;100.00;99638.88;5346041;27;20465;-70
2021/12/01 03:35:20;;;;;;;2.97;1.65;;;;;;;8.18;100.00;99613.81;5346055;27;20390;-69
2021/12/01 03:37:51;;;;;;;2.70;1.35;;;;;;;8.29;100.00;99631.81;5346195;27;20023;-69
2021/12/01 03:40:23;;;;;;;3.17;1.63;;;;;;;8.14;100.00;99607.00;5346721;27;20039;-69
2021/12/01 03:42:54;;;;;;;2.08;1.30;;;;;;;8.05;100.00;99596.84;5344776;27;20034;-70
2021/12/01 03:45:26;;;;;;;3.13;1.83;;;;;;;8.03;100.00;99596.06;5346352;27;20488;-70
2021/12/01 03:47:57;;;;;;;2.47;1.30;;;;;;;8.10;100.00;99601.94;5345499;27;20031;-70
2021/12/01 03:50:28;;;;;;;3.40;2.17;;;;;;;8.00;100.00;99585.66;5346581;27;20107;-70
2021/12/01 03:53:00;;;;;;;3.35;2.03;;;;;;;8.09;100.00;99587.91;5345893;27;20026;-70
2021/12/01 03:55:31;;;;;;;3.10;1.98;;;;;;;8.08;100.00;99573.03;5345779;27;20113;-71
2021/12/01 03:58:03;;;;;;;2.70;1.23;;;;;;;8.09;100.00;99543.19;5345957;27;20035;-71
2021/12/01 04:00:35;;;;;;;2.60;1.75;;;;;;;7.92;100.00;99540.41;5346380;27;20477;-71
2021/12/01 04:03:06;;;;;;;3.10;1.77;;;;;;;8.10;100.00;99520.41;5344973;27;20026;-71
2021/12/01 04:05:37;;;;;;;3.08;1.50;;;;;;;8.08;100.00;99525.69;5345737;27;20118;-71
2021/12/01 04:08:08;;;;;;;4.35;1.73;;;;;;;8.12;100.00;99521.19;5346031;27;20028;-70
2021/12/01 04:10:40;;;;;;;2.40;1.77;;;;;;;8.05;100.00;99508.28;5344903;27;20062;-71
2021/12/01 04:13:11;;;;;;;2.58;2.10;;;;;;;8.01;100.00;99501.44;5346094;27;20027;-71
2021/12/01 04:15:42;;;;;;;2.70;1.85;;;;;;;7.91;100.00;99501.91;5345377;27;20061;-70
2021/12/01 04:18:14;;;;;;;5.15;2.22;;;;;;;7.94;100.00;99499.16;5345044;27;20027;-71
2021/12/01 04:20:45;;;;;;;3.38;1.65;;;;;;;7.93;100.00;99493.03;5345198;27;20031;-70
2021/12/01 04:23:16;;;;;;;2.97;1.58;;;;;;;7.91;100.00;99494.03;5344905;27;20055;-70
2021/12/01 04:25:48;;;;;;;3.15;1.30;;;;;;;7.94;100.00;99484.22;5345140;27;20431;-70
2021/12/01 04:28:19;;;;;;;1.80;1.08;;;;;;;7.92;100.00;99483.44;5345887;27;20497;-70
2021/12/01 04:30:50;;;;;;;2.60;1.17;;;;;;;7.97;100.00;99475.34;5344343;27;20022;-70
2021/12/01 04:33:22;;;;;;;2.88;1.20;;;;;;;7.87;100.00;99462.59;5345869;27;20019;-70
2021/12/01 04:35:53;;;;;;;1.45;0.77;;;;;;;7.90;100.00;99448.44;5345096;27;20019;-70
2021/12/01 04:38:25;;;;;;;1.80;0.82;;;;;;;7.90;100.00;99434.47;5344995;27;20023;-70
2021/12/01 04:40:56;;;;;;;2.17;0.75;;;;;;;7.85;100.00;99419.75;5345087;27;20023;-70
2021/12/01 04:43:28;;;;;;;2.70;0.90;;;;;;;7.83;100.00;99420.72;5345415;27;20106;-70
2021/12/01 04:46:00;;;;;;;1.58;0.82;;;;;;;7.84;100.00;99412.75;5343774;27;20435;-70
2021/12/01 04:48:32;;;;;;;3.05;0.95;;;;;;;7.86;100.00;99415.31;5345550;27;20394;-69
2021/12/01 04:51:03;;;;;;;1.92;1.00;;;;;;;7.72;100.00;99405.41;5344090;27;20026;-70
2021/12/01 04:53:35;;;;;;;2.00;0.85;;;;;;;7.67;100.00;99407.38;5344972;27;20030;-70
2021/12/01 04:56:06;;;;;;;2.70;0.65;;;;;;;7.90;100.00;99397.66;5344639;27;20605;-71
2021/12/01 04:58:37;;;;;;;1.52;0.73;;;;;;;7.77;100.00;99395.53;5344088;27;20027;-71
2021/12/01 05:01:09;;;;;;;2.30;0.77;;;;;;;7.66;100.00;99384.66;5345837;28;20015;-71
2021/12/01 05:03:40;;;;;;;4.35;0.85;;;;;;;7.72;100.00;99383.50;5344659;28;20031;-71
2021/12/01 05:06:13;;;;;;;2.10;0.70;;;;;;;7.80;100.00;99377.00;5344491;27;20034;-70
2021/12/01 05:08:45;;;;;;;2.42;0.80;;;;;;;7.65;100.00;99368.00;5344524;27;20466;-70
2021/12/01 05:11:16;;;;;;;2.33;0.68;;;;;;;7.67;100.00;99373.19;5345379;27;20363;-71
2021/12/01 05:13:48;;;;;;;2.00;0.70;;;;;;;7.66;100.00;99364.47;5343848;28;20015;-70
2021/12/01 05:16:19;;;;;;;3.38;0.90;;;;;;;7.58;100.00;99368.34;5345189;28;20019;-72
2021/12/01 05:18:51;;;;;;;3.35;0.70;;;;;;;7.76;100.00;99350.91;5344401;27;20027;-69
2021/12/01 05:21:22;;;;;;;3.53;0.40;;;;;;;7.67;100.00;99358.31;5344454;27;20027;-70
2021/12/01 05:23:53;;;;;;;3.17;0.90;;;;;;;7.60;100.00;99358.63;5344590;28;20023;-70
2021/12/01 05:26:24;;;;;;;1.85;0.65;;;;;;;7.56;100.00;99346.56;5344307;27;20105;-70
2021/12/01 05:28:56;;;;;;;1.88;0.90;;;;;;;7.51;100.00;99338.84;5344444;27;20018;-69
2021/12/01 05:31:27;;;;;;;1.60;0.50;;;;;;;7.52;100.00;99330.06;5345012;28;20054;-70
2021/12/01 05:33:59;;;;;;;2.55;0.68;;;;;;;7.45;100.00;99347.00;5343375;28;20031;-70
2021/12/01 05:36:30;;;;;;;1.27;0.57;;;;;;;7.48;100.00;99334.59;5345140;28;20461;-70
2021/12/01 05:39:02;;;;;;;0.82;0.45;;;;;;;7.49;100.00;99351.22;5344114;28;20072;-70
2021/12/01 05:41:34;;;;;;;0.90;0.43;;;;;;;7.52;100.00;99332.69;5343776;28;20027;-70
2021/12/01 05:44:05;;;;;;;2.10;0.57;;;;;;;7.45;100.00;99328.59;5344187;27;20060;-70
2021/12/01 05:46:37;;;;;;;0.77;0.30;;;;;;;7.52;100.00;99319.53;5344361;27;20039;-70
2021/12/01 05:49:08;;;;;;;0.60;0.30;;;;;;;7.67;100.00;99305.75;5344022;28;20138;-70
2021/12/01 05:51:39;;;;;;;2.88;1.15;;;;;;;7.49;100.00;99302.13;5344086;27;20051;-70
2021/12/01 05:54:11;;;;;;;1.38;0.40;;;;;;;7.41;100.00;99301.63;5344775;27;20039;-71
2021/12/01 05:56:42;;;;;;;0.55;0.28;;;;;;;7.50;100.00;99305.63;5343643;27;20027;-71
2021/12/01 05:59:13;;;;;;;1.23;0.30;;;;;;;7.42;100.00;99299.84;5345045;27;20031;-70
2021/12/01 06:01:44;;;;;;;0.40;0.20;;;;;;;7.48;100.00;99291.69;5343591;27;20029;-70
2021/12/01 06:04:16;;;;;;;1.23;0.30;;;;;;;7.42;100.00;99278.81;5344749;28;20072;-69
2021/12/01 06:06:47;;;;;;;1.75;0.35;;;;;;;7.39;100.00;99277.19;5347014;27;20030;-72
2021/12/01 06:09:18;;;;;;;0.93;0.30;;;;;;;7.43;100.00;99263.00;5347818;27;20084;-71
2021/12/01 06:11:52;;;;;;;0.75;0.25;;;;;;;7.46;100.00;99256.75;5348202;27;20143;-70
2021/12/01 06:14:23;;;;;;;0.95;0.20;;;;;;;7.48;100.00;99257.53;5348801;27;20466;-71
2021/12/01 06:16:54;;;;;;;0.75;0.17;;;;;;;7.53;100.00;99242.44;5347108;27;20084;-71
2021/12/01 06:19:26;;;;;;;1.80;0.32;;;;;;;7.33;100.00;99238.06;5348357;27;20438;-71
2021/12/01 06:21:57;;;;;;;0.88;0.30;;;;;;;7.41;100.00;99228.06;5347731;27;20027;-71
2021/12/01 06:24:28;;;;;;;1.02;0.40;;;;;;;7.43;100.00;99230.63;5347421;27;20053;-71
2021/12/01 06:27:00;;;;;;;0.30;0.10;;;;;;;7.54;100.00;99228.38;5347541;27;20393;-72
2021/12/01 06:29:31;;;;;;;0.88;0.50;;;;;;;7.46;100.00;99226.06;5347424;27;20421;-71
2021/12/01 06:32:03;;;;;;;0.90;0.40;;;;;;;7.40;100.00;99228.97;5347683;27;20062;-71
2021/12/01 06:34:34;;;;;;;0.40;0.20;;;;;;;7.57;100.00;99222.97;5347883;27;20024;-70
2021/12/01 06:37:06;;;;;;;0.47;0.20;;;;;;;7.50;100.00;99209.25;5346510;27;20027;-70
2021/12/01 06:39:37;;;;;;;1.85;0.40;;;;;;;7.48;100.00;99216.38;5347371;27;20031;-71
2021/12/01 06:42:08;;;;;;;0.80;0.30;;;;;;;7.55;100.00;99223.97;5347686;27;20023;-70
2021/12/01 06:44:40;;;;;;;0.98;0.38;;;;;;;7.39;100.00;99210.66;5346446;27;20031;-70
2021/12/01 06:47:11;;;;;;;1.17;0.40;;;;;;;7.49;100.00;99190.94;5347466;27;20051;-70
2021/12/01 06:49:45;;;;;;;1.00;0.40;;;;;;;7.44;100.00;99191.16;5346968;27;20058;-70
2021/12/01 06:52:16;;;;;;;0.73;0.30;;;;;;;7.45;100.00;99198.13;5346724;27;20027;-70
2021/12/01 06:54:48;;;;;;;1.15;0.45;;;;;;;7.48;100.00;99173.44;5347020;27;20027;-69
2021/12/01 06:57:19;;;;;;;0.70;0.35;;;;;;;7.52;100.00;99186.38;5347737;27;20037;-70
2021/12/01 06:59:51;;;;;;;1.15;0.40;;;;;;;7.48;100.00;99189.22;5346309;27;20031;-70
2021/12/01 07:02:22;;;;;;;0.85;0.43;;;;;;;7.51;100.00;99176.81;5347563;27;20027;-70
2021/12/01 07:04:53;;;;;;;2.15;0.60;;;;;;;7.57;100.00;99187.94;5345979;27;20575;-70
2021/12/01 07:07:25;;;;;;;1.27;0.50;;;;;;;7.62;100.00;99178.09;5347364;27;20351;-70
2021/12/01 07:09:56;;;;;;;1.50;0.60;;;;;;;7.66;100.00;99175.25;5346902;27;20027;-70
2021/12/01 07:12:27;;;;;;;1.80;0.60;;;;;;;7.62;100.00;99176.31;5346678;27;20385;-70
2021/12/01 07:14:59;;;;;;;2.05;0.60;;;;;;;7.62;100.00;99168.41;5346424;27;20074;-70
2021/12/01 07:17:30;;;;;;;1.40;0.70;;;;;;;7.59;100.00;99163.31;5346365;27;20027;-71
2021/12/01 07:20:03;;;;;;;1.75;0.65;;;;;;;7.57;100.00;99170.44;5345925;27;20033;-72
2021/12/01 07:22:35;;;;;;;1.23;0.60;;;;;;;7.34;100.00;99168.84;5347072;27;20035;-71
2021/12/01 07:25:06;;;;;;;0.95;0.35;;;;;;;7.31;100.00;99175.06;5346350;27;20031;-72
2021/12/01 07:27:38;;;;;;;0.50;0.20;;;;;;;7.29;100.00;99166.44;5345653;27;20023;-72
2021/12/01 07:30:10;;;;;;;0.40;0.13;;;;;;;7.28;100.00;99174.38;5346964;27;20027;-71
2021/12/01 07:32:41;;;;;;;1.10;0.40;;;;;;;7.31;100.00;99159.31;5346270;27;20062;-71
2021/12/01 07:35:12;;;;;;;0.38;0.10;;;;;;;7.76;100.00;99167.78;5346832;27;20076;-71
2021/12/01 07:37:44;;;;;;;1.65;0.10;;;;;;;7.71;100.00;99167.13;5346054;27;20031;-72
2021/12/01 07:40:16;;;;;;;0.45;0.20;;;;;;;7.48;100.00;99170.81;5346009;27;20038;-72
2021/12/01 07:42:48;;;;;;;0.40;0.10;;;;;;;7.55;100.00;99161.75;5345881;27;20420;-72
2021/12/01 07:45:19;;;;;;;0.50;0.20;;;;;;;7.39;100.00;99161.59;5346742;27;20051;-72
2021/12/01 07:47:50;;;;;;;0.65;0.22;;;;;;;7.38;100.00;99172.16;5345091;27;20034;-71
2021/12/01 07:50:22;;;;;;;0.70;0.20;;;;;;;7.38;100.00;99164.28;5346619;27;20462;-71
2021/12/01 07:52:53;;;;;;;1.33;0.20;;;;;;;7.41;100.00;99158.88;5345763;27;20084;-72
2021/12/01 07:55:24;;;;;;;1.50;0.65;;;;;;;-146.48;100.00;60459.00;5345523;27;20027;-72
2021/12/01 07:57:56;;;;;;;1.58;0.20;;;;;;;-146.48;100.00;60459.00;5345821;27;20031;-70
2021/12/01 08:00:28;;;;;;;0.25;0.10;;;;;;;7.64;100.00;75336.91;5346174;27;20080;-71
2021/12/01 08:02:59;;;;;;;0.70;0.30;;;;;;;-146.48;100.00;60459.00;5344300;27;20031;-71
2021/12/01 08:05:32;;;;;;;0.40;0.20;;;;;;;7.60;100.00;99130.88;5346038;27;20108;-70
2021/12/01 08:08:05;;;;;;;1.15;0.20;;;;;;;-146.48;100.00;60459.00;5344864;27;20114;-71
2021/12/01 08:10:37;;;;;;;0.40;0.30;;;;;;;7.71;100.00;99122.47;5344546;27;20076;-72
2021/12/01 08:13:09;;;;;;;1.58;0.50;;;;;;;8.15;100.00;99114.19;5344692;27;20023;-71
2021/12/01 08:15:41;;;;;;;0.65;0.28;;;;;;;8.25;100.00;99119.03;5343332;27;20027;-71
2021/12/01 08:18:12;;;;;;;0.60;0.25;;;;;;;8.38;100.00;99114.84;5344746;27;20382;-70
2021/12/01 08:20:45;;;;;;;0.70;0.30;;;;;;;-146.48;100.00;60459.00;5344137;27;20044;-70
2021/12/01 08:23:16;;;;;;;1.55;0.65;;;;;;;8.53;100.00;99116.72;5343389;27;20364;-71
2021/12/01 08:25:47;;;;;;;0.75;0.20;;;;;;;-146.48;100.00;60459.00;5343877;27;20026;-71
2021/12/01 08:28:19;;;;;;;2.40;0.60;;;;;;;-146.48;100.00;60459.00;5344045;27;20055;-71
2021/12/01 08:30:50;;;;;;;0.75;0.30;;;;;;;8.57;100.00;99330.63;5342608;27;20450;-71
2021/12/01 08:33:21;;;;;;;3.60;0.70;;;;;;;-146.48;100.00;60459.00;5344123;27;20023;-70
2021/12/01 08:35:53;;;;;;;0.95;0.43;;;;;;;8.53;100.00;99393.06;5343937;27;20425;-71
2021/12/01 08:38:24;;;;;;;0.73;0.30;;;;;;;8.67;100.00;99413.50;5343000;27;20023;-70
2021/12/01 08:40:55;;;;;;;0.68;0.30;;;;;;;8.71;100.00;99417.69;5343611;27;20434;-69
2021/12/01 08:43:27;;;;;;;0.45;0.20;;;;;;;8.88;100.00;99447.66;5343639;27;20027;-70
2021/12/01 08:45:58;;;;;;;0.40;0.20;;;;;;;8.89;100.00;99415.13;5343484;27;20051;-70
2021/12/01 08:48:30;;;;;;;0.60;0.20;;;;;;;8.99;100.00;99407.63;5344056;27;20635;-70
2021/12/01 08:51:02;;;;;;;0.80;0.40;;;;;;;8.66;100.00;99284.59;5341874;27;20078;-70
2021/12/01 08:53:37;;;;;;;0.40;0.20;;;;;;;8.79;100.00;99345.41;5344051;27;20062;-70
2021/12/01 08:56:10;;;;;;;0.88;0.20;;;;;;;8.91;100.00;99373.75;5344090;27;20353;-70
2021/12/01 08:58:42;;;;;;;0.40;0.20;;;;;;;8.95;100.00;99367.41;5342728;27;20068;-70
2021/12/01 09:01:13;;;;;;;0.65;0.20;;;;;;;9.07;100.00;99365.97;5344188;27;20027;-70
2021/12/01 09:03:44;;;;;;;0.52;0.20;;;;;;;9.10;100.00;99339.47;5342864;27;20034;-72
2021/12/01 09:06:16;;;;;;;0.25;0.00;;;;;;;8.93;100.00;99271.81;5343396;27;20034;-71
2021/12/01 09:08:47;;;;;;;0.38;0.10;;;;;;;8.97;100.00;99285.69;5343444;27;20023;-72
2021/12/01 09:11:18;;;;;;;0.20;0.10;;;;;;;8.86;100.00;99244.13;5343235;28;20065;-71
2021/12/01 09:13:50;;;;;;;0.50;0.20;;;;;;;8.84;100.00;99243.31;5343329;28;20106;-70
2021/12/01 09:16:22;;;;;;;0.65;0.20;;;;;;;8.80;100.00;99229.47;5343247;27;20026;-69
2021/12/01 09:18:53;;;;;;;0.40;0.20;;;;;;;8.73;100.00;99220.16;5342005;28;20031;-70
2021/12/01 09:21:25;;;;;;;0.47;0.10;;;;;;;8.81;100.00;99246.09;5343572;28;20515;-71
2021/12/01 09:23:56;;;;;;;0.40;0.10;;;;;;;8.74;100.00;99225.34;5343150;27;20488;-71
2021/12/01 09:26:27;;;;;;;0.32;0.10;;;;;;;8.84;100.00;99254.69;5342836;28;20055;-70
2021/12/01 09:28:59;;;;;;;1.00;0.10;;;;;;;8.81;100.00;99233.78;5342680;27;20488;-71
2021/12/01 09:31:31;;;;;;;0.20;0.00;;;;;;;8.82;100.00;99216.22;5343918;28;20096;-71
2021/12/01 09:34:03;;;;;;;0.10;0.00;;;;;;;8.81;100.00;99190.81;5342788;27;20450;-72
2021/12/01 09:36:34;;;;;;;0.10;0.10;;;;;;;8.71;100.00;99116.72;5343807;28;20023;-72
2021/12/01 09:39:06;;;;;;;0.80;0.20;;;;;;;8.76;100.00;99106.81;5343031;27;20012;-71
2021/12/01 09:41:38;;;;;;;0.52;0.15;;;;;;;8.79;100.00;99075.06;5344951;27;20027;-72
2021/12/01 09:44:10;;;;;;;0.22;0.10;;;;;;;8.82;100.00;99050.34;5347632;27;20463;-72
2021/12/01 09:46:41;;;;;;;0.35;0.03;;;;;;;8.79;100.00;99011.03;5346373;27;20047;-71
2021/12/01 09:49:13;;;;;;;0.50;0.10;;;;;;;8.68;100.00;98975.59;5347805;27;20559;-70
2021/12/01 09:51:45;;;;;;;1.15;0.20;;;;;;;8.56;100.00;98927.09;5347092;27;20489;-70
2021/12/01 09:54:16;;;;;;;1.08;0.30;;;;;;;8.49;100.00;98886.25;5347016;27;20031;-71
2021/12/01 09:56:47;;;;;;;1.55;0.25;;;;;;;8.50;100.00;98874.78;5346444;27;20030;-72
2021/12/01 09:59:19;;;;;;;1.25;0.43;;;;;;;8.51;100.00;98873.84;5347462;27;20463;-72
2021/12/01 10:01:50;;;;;;;0.45;0.10;;;;;;;8.51;100.00;98894.91;5346040;27;20520;-71
2021/12/01 10:04:21;;;;;;;0.30;0.10;;;;;;;8.48;100.00;98947.69;5346954;27;20125;-72
2021/12/01 10:07:11;;;;;;;0.32;0.20;;;;;;;8.53;100.00;99055.34;5348101;27;20035;-71
2021/12/01 10:09:45;;;;;;;2.10;0.20;;;;;;;8.45;100.00;99089.97;5343361;27;20459;-72
2021/12/01 10:12:17;;;;;;;1.25;0.20;;;;;;;8.42;100.00;99108.50;5348220;27;20023;-71
2021/12/01 10:14:51;;;;;;;1.38;0.10;;;;;;;8.38;100.00;99115.69;5346713;27;20019;-72
2021/12/01 10:17:35;;;;;;;0.20;0.10;;;;;;;8.43;100.00;99136.50;5348260;27;20069;-71
2021/12/01 10:20:12;;;;;;;0.08;0.00;;;;;;;8.44;100.00;99135.63;5347510;27;20023;-71
2021/12/01 10:23:06;;;;;;;0.17;0.10;;;;;;;8.40;100.00;99119.13;5346463;27;20486;-72
2021/12/01 10:25:38;;;;;;;0.13;0.00;;;;;;;8.36;100.00;99103.53;5347016;27;20023;-72
2021/12/01 10:28:34;;;;;;;0.15;0.00;;;;;;;8.33;100.00;99093.16;5347671;27;20035;-71
2021/12/01 10:31:05;;;;;;;0.20;0.00;;;;;;;8.18;100.00;99061.44;5347612;27;20106;-72
2021/12/01 10:33:37;;;;;;;0.10;0.00;;;;;;;8.10;100.00;99076.78;5347613;27;20114;-71
2021/12/01 10:36:11;;;;;;;1.52;0.10;;;;;;;8.15;100.00;99077.38;5346842;27;20023;-71
2021/12/01 10:38:45;;;;;;;0.15;0.00;;;;;;;8.23;100.00;99083.13;5347000;27;20109;-71
2021/12/01 10:41:16;;;;;;;2.75;0.15;;;;;;;8.08;100.00;99033.91;5332989;27;20035;-71
2021/12/01 10:43:48;;;;;;;0.65;0.00;;;;;;;8.10;100.00;99044.38;5346397;27;20042;-71
2021/12/01 10:46:20;;;;;;;0.20;0.00;;;;;;;8.02;100.00;99007.91;5339093;27;20051;-71
2021/12/01 10:49:03;;;;;;;0.10;0.00;;;;;;;7.96;100.00;99002.97;5333131;27;20027;-71
2021/12/01 10:51:38;;;;;;;0.95;0.00;;;;;;;7.84;100.00;98994.75;5324454;28;20042;-73
2021/12/01 10:54:15;;;;;;;0.00;0.00;;;;;;;7.96;100.00;99002.97;5325579;28;20032;-70
2021/12/01 10:57:17;;;;;;;0.90;0.00;;;;;;;7.96;100.00;99001.19;5324645;28;20073;-71
2021/12/01 10:59:51;;;;;;;0.13;0.00;;;;;;;7.99;100.00;98998.41;5325239;28;20062;-70
2021/12/01 11:02:22;;;;;;;0.35;0.00;;;;;;;8.01;100.00;98996.56;5340939;27;20102;-70
2021/12/01 11:04:53;;;;;;;0.03;0.00;;;;;;;8.09;100.00;99011.94;5345584;27;20149;-70
2021/12/01 11:07:33;;;;;;;1.20;0.00;;;;;;;8.10;100.00;99018.91;5346978;27;20474;-70
2021/12/01 11:10:18;;;;;;;0.10;0.08;;;;;;;8.03;100.00;99005.22;5344223;27;20374;-71
2021/12/01 11:12:58;;;;;;;1.75;0.00;;;;;;;8.02;100.00;99000.03;5345097;27;20480;-71
2021/12/01 11:15:33;;;;;;;0.15;0.00;;;;;;;7.93;100.00;98993.44;5345946;27;20023;-70
2021/12/01 11:18:06;;;;;;;2.00;0.00;;;;;;;7.90;100.00;98993.63;5344512;27;20661;-70
2021/12/01 11:20:49;;;;;;;0.10;0.00;;;;;;;7.85;100.00;98993.84;5345151;27;20467;-70
2021/12/01 11:23:34;;;;;;;0.00;0.00;;;;;;;7.88;100.00;98992.84;5345144;27;20058;-70
2021/12/01 11:26:16;;;;;;;0.00;0.00;;;;;;;7.91;100.00;99002.38;5344231;27;20058;-70
2021/12/01 11:28:49;;;;;;;0.00;0.00;;;;;;;7.83;100.00;98976.44;5345059;27;20023;-70
2021/12/01 11:31:30;;;;;;;0.00;0.00;;;;;;;7.78;100.00;98976.69;5345324;27;20020;-70
2021/12/01 11:34:05;;;;;;;0.00;0.00;;;;;;;7.83;100.00;98973.81;5343265;27;20176;-71
2021/12/01 11:36:49;;;;;;;0.10;0.00;;;;;;;7.80;100.00;98972.19;5345057;27;20381;-71
2021/12/01 11:39:25;;;;;;;0.52;0.10;;;;;;;7.78;100.00;98955.66;5344817;27;20028;-70
2021/12/01 11:41:57;;;;;;;2.40;0.00;;;;;;;7.77;100.00;98939.97;5344625;27;20031;-70
2021/12/01 11:44:30;;;;;;;0.95;0.00;;;;;;;7.84;100.00;98936.09;5345113;27;20035;-71
2021/12/01 11:47:01;;;;;;;1.95;0.00;;;;;;;7.85;100.00;98941.28;5343350;27;20150;-71
2021/12/01 11:49:33;;;;;;;0.10;0.00;;;;;;;7.90;100.00;98950.72;5344991;27;20019;-70
2021/12/01 11:52:09;;;;;;;0.20;0.00;;;;;;;7.95;100.00;98943.41;5344291;27;20110;-70
2021/12/01 11:54:43;;;;;;;0.10;0.00;;;;;;;7.85;100.00;98922.88;5343569;27;20094;-71
2021/12/01 11:57:14;;;;;;;0.00;0.00;;;;;;;7.87;100.00;98920.16;5345234;27;20031;-71
2021/12/01 11:59:49;;;;;;;0.10;0.08;;;;;;;7.84;100.00;98912.44;5344362;27;20015;-70
2021/12/01 12:02:23;;;;;;;0.00;0.00;;;;;;;7.80;100.00;98910.88;5343892;27;20116;-72